createdAt,value
2022-12-18T00:00:17.764Z,101294.28
2022-12-18T00:01:23.847Z,101303.66
2022-12-18T00:02:25.781Z,101306.44
2022-12-18T00:03:27.658Z,101304.63
2022-12-18T00:04:29.558Z,101300.22
2022-12-18T00:05:31.405Z,101300.22
2022-12-18T00:06:34.598Z,101305.66
2022-12-18T00:07:36.695Z,101305.75
2022-12-18T00:08:39.577Z,101299.06
2022-12-18T00:09:41.340Z,101304.03
2022-12-18T00:10:43.166Z,101302.34
2022-12-18T00:11:44.992Z,101299.47
2022-12-18T00:12:46.809Z,101304.25
2022-12-18T00:13:49.329Z,101306.91
2022-12-18T00:14:51.117Z,101318.38
2022-12-18T00:15:52.921Z,101312.31
2022-12-18T00:17:01.614Z,101291.50
2022-12-18T00:18:03.580Z,101314.03
2022-12-18T00:19:05.808Z,101306.16
2022-12-18T00:20:08.412Z,101310.69
2022-12-18T00:21:12.175Z,101302.75
2022-12-18T00:22:14.053Z,101295.72
2022-12-18T00:23:18.916Z,101301.03
2022-12-18T00:24:20.774Z,101294.03
2022-12-18T00:25:22.929Z,101275.75
2022-12-18T00:26:27.114Z,101277.38
2022-12-18T00:27:32.475Z,101282.59
2022-12-18T00:28:35.265Z,101279.19
2022-12-18T00:29:37.080Z,101277.44
2022-12-18T00:30:41.714Z,101279.19
2022-12-18T00:31:44.390Z,101277.44
2022-12-18T00:32:46.201Z,101279.56
2022-12-18T00:33:50.014Z,101289.97
2022-12-18T00:34:55.927Z,101276.63
2022-12-18T00:36:04.473Z,101281.06
2022-12-18T00:37:07.595Z,101264.91
2022-12-18T00:38:09.345Z,101272.66
2022-12-18T00:39:12.525Z,101274.66
2022-12-18T00:40:14.344Z,101269.34
2022-12-18T00:41:37.967Z,101289.22
2022-12-18T00:42:58.254Z,101279.19
2022-12-18T00:44:00.168Z,101268.94
2022-12-18T00:45:01.978Z,101283.63
2022-12-18T00:46:04.141Z,101275.00
2022-12-18T00:47:07.312Z,101283.09
2022-12-18T00:48:09.190Z,101269.47
2022-12-18T00:49:11.341Z,101268.41
2022-12-18T00:50:16.166Z,101266.91
2022-12-18T00:51:18.122Z,101279.75
2022-12-18T00:52:19.930Z,101267.84
2022-12-18T00:53:21.920Z,101272.75
2022-12-18T00:54:23.920Z,101260.66
2022-12-18T00:55:25.767Z,101264.81
2022-12-18T00:56:27.744Z,101264.91
2022-12-18T00:57:30.020Z,101232.69
2022-12-18T00:58:32.016Z,101271.06
2022-12-18T00:59:39.868Z,101260.44
2022-12-18T01:00:42.022Z,101259.63
2022-12-18T01:01:47.938Z,101266.63
2022-12-18T01:02:50.571Z,101261.31
2022-12-18T01:03:52.680Z,101238.34
2022-12-18T01:04:55.467Z,101258.75
2022-12-18T01:05:57.710Z,101261.41
2022-12-18T01:06:59.639Z,101269.34
2022-12-18T01:08:02.810Z,101273.81
2022-12-18T01:09:04.862Z,101266.81
2022-12-18T01:10:08.694Z,101271.25
2022-12-18T01:11:18.043Z,101266.81
2022-12-18T01:12:20.043Z,101262.34
2022-12-18T01:13:21.833Z,101266.81
2022-12-18T01:14:25.696Z,101265.13
2022-12-18T01:15:28.467Z,101272.97
2022-12-18T01:16:30.281Z,101270.44
2022-12-18T01:17:32.248Z,101268.59
2022-12-18T01:18:36.681Z,101268.59
2022-12-18T01:19:38.440Z,101265.13
2022-12-18T01:20:40.292Z,101261.59
2022-12-18T01:21:42.134Z,101264.25
2022-12-18T01:22:43.968Z,101214.75
2022-12-18T01:23:46.097Z,101270.44
2022-12-18T01:24:47.891Z,101256.28
2022-12-18T01:25:49.800Z,101258.94
2022-12-18T01:26:51.640Z,101258.94
2022-12-18T01:27:53.436Z,101263.41
2022-12-18T01:28:58.757Z,101263.41
2022-12-18T01:30:00.525Z,101264.25
2022-12-18T01:31:19.860Z,101256.97
2022-12-18T01:32:23.034Z,101255.16
2022-12-18T01:33:25.527Z,101250.03
2022-12-18T01:34:27.335Z,101254.50
2022-12-18T01:35:29.488Z,101255.34
2022-12-18T01:36:37.428Z,101251.94
2022-12-18T01:37:39.169Z,101251.00
2022-12-18T01:38:41.015Z,101252.81
2022-12-18T01:39:42.856Z,101258.94
2022-12-18T01:40:44.621Z,101256.41
2022-12-18T01:42:02.890Z,101256.50
2022-12-18T01:43:10.304Z,101265.88
2022-12-18T01:45:06.278Z,101252.41
2022-12-18T01:46:08.115Z,101251.03
2022-12-18T01:47:10.472Z,101253.03
2022-12-18T01:48:12.257Z,101253.22
2022-12-18T01:49:14.133Z,101254.41
2022-12-18T01:50:39.082Z,101249.22
2022-12-18T01:51:41.558Z,101249.63
2022-12-18T01:52:47.904Z,101253.44
2022-12-18T01:53:50.322Z,101249.94
2022-12-18T01:54:53.304Z,101249.09
2022-12-18T01:55:58.580Z,101246.56
2022-12-18T01:57:01.954Z,101239.84
2022-12-18T01:58:04.663Z,101242.19
2022-12-18T01:59:11.108Z,101237.72
2022-12-18T02:00:17.753Z,101232.44
2022-12-18T02:01:22.942Z,101237.63
2022-12-18T02:02:25.054Z,101227.03
2022-12-18T02:03:27.612Z,101234.13
2022-12-18T02:04:29.801Z,101226.28
2022-12-18T02:05:34.372Z,101229.78
2022-12-18T02:06:42.390Z,101223.72
2022-12-18T02:08:17.134Z,101227.03
2022-12-18T02:09:29.033Z,101227.47
2022-12-18T02:10:43.175Z,101223.09
2022-12-18T02:12:00.770Z,101219.69
2022-12-18T02:13:14.619Z,101231.94
2022-12-18T02:14:37.533Z,101229.16
2022-12-18T02:15:51.529Z,101228.31
2022-12-18T02:17:06.185Z,101227.56
2022-12-18T02:18:22.227Z,101216.09
2022-12-18T02:19:58.392Z,101209.75
2022-12-18T02:21:29.990Z,101216.56
2022-12-18T02:22:47.271Z,101211.25
2022-12-18T02:24:01.262Z,101189.03
2022-12-18T02:25:12.147Z,101216.84
2022-12-18T02:26:21.802Z,101200.19
2022-12-18T02:27:28.324Z,101200.31
2022-12-18T02:28:34.480Z,101201.34
2022-12-18T02:29:57.583Z,101195.09
2022-12-18T02:31:05.686Z,101202.09
2022-12-18T02:32:13.283Z,101195.94
2022-12-18T02:33:16.344Z,101205.81
2022-12-18T02:34:22.151Z,101163.00
2022-12-18T02:35:30.941Z,101183.72
2022-12-18T02:36:39.305Z,101182.78
2022-12-18T02:37:45.344Z,101165.56
2022-12-18T02:38:48.184Z,101178.41
2022-12-18T02:39:54.161Z,101177.59
2022-12-18T02:40:57.939Z,101182.78
2022-12-18T02:42:03.437Z,101176.72
2022-12-18T02:43:13.314Z,101183.72
2022-12-18T02:44:15.643Z,101181.81
2022-12-18T02:45:18.714Z,101176.94
2022-12-18T02:46:29.948Z,101174.06
2022-12-18T02:47:37.953Z,101174.72
2022-12-18T02:48:41.069Z,101180.88
2022-12-18T02:49:58.750Z,101174.59
2022-12-18T02:51:25.412Z,101164.66
2022-12-18T02:52:46.664Z,101166.22
2022-12-18T02:53:59.269Z,101160.94
2022-12-18T02:55:18.865Z,101162.00
2022-12-18T02:56:47.536Z,101159.97
2022-12-18T02:58:06.425Z,101152.00
2022-12-18T02:59:20.469Z,101154.66
2022-12-18T03:00:36.944Z,101147.13
2022-12-18T03:01:58.890Z,101149.34
2022-12-18T03:03:08.786Z,101129.94
2022-12-18T03:04:22.412Z,101155.63
2022-12-18T03:05:32.416Z,101150.53
2022-12-18T03:06:40.851Z,101153.19
2022-12-18T03:07:54.225Z,101139.50
2022-12-18T03:09:07.109Z,101145.97
2022-12-18T03:10:15.467Z,101145.22
2022-12-18T03:11:37.555Z,101147.88
2022-12-18T03:12:50.611Z,101142.34
2022-12-18T03:13:58.260Z,101109.78
2022-12-18T03:15:17.495Z,101128.13
2022-12-18T03:16:30.280Z,101136.09
2022-12-18T03:17:34.617Z,101131.94
2022-12-18T03:18:38.632Z,101130.47
2022-12-18T03:19:42.475Z,101132.91
2022-12-18T03:20:47.527Z,101133.03
2022-12-18T03:21:57.294Z,101138.22
2022-12-18T03:23:12.566Z,101139.28
2022-12-18T03:24:16.534Z,101133.78
2022-12-18T03:25:21.322Z,101137.25
2022-12-18T03:26:28.134Z,101140.13
2022-12-18T03:27:37.793Z,101131.53
2022-12-18T03:28:51.976Z,101119.09
2022-12-18T03:30:13.284Z,101118.69
2022-12-18T03:31:17.668Z,101118.47
2022-12-18T03:32:30.217Z,101125.69
2022-12-18T03:33:47.486Z,101095.56
2022-12-18T03:34:53.734Z,101129.09
2022-12-18T03:35:58.046Z,101121.13
2022-12-18T03:36:59.908Z,101117.00
2022-12-18T03:38:07.674Z,101122.28
2022-12-18T03:39:11.923Z,101111.38
2022-12-18T03:40:15.206Z,101123.16
2022-12-18T03:41:20.981Z,101109.56
2022-12-18T03:42:52.641Z,101111.47
2022-12-18T03:43:57.777Z,101103.31
2022-12-18T03:45:10.218Z,101092.16
2022-12-18T03:46:55.264Z,101106.72
2022-12-18T03:48:30.928Z,101087.50
2022-12-18T03:49:46.629Z,101083.78
2022-12-18T03:51:07.069Z,101092.16
2022-12-18T03:52:21.660Z,101084.44
2022-12-18T03:53:32.717Z,101086.25
2022-12-18T03:54:36.758Z,101084.56
2022-12-18T03:55:49.591Z,101082.06
2022-12-18T03:56:59.329Z,101076.78
2022-12-18T03:58:04.700Z,101077.72
2022-12-18T03:59:18.622Z,101070.50
2022-12-18T04:00:21.516Z,101070.19
2022-12-18T04:01:41.715Z,101083.78
2022-12-18T04:02:51.714Z,101080.28
2022-12-18T04:04:01.809Z,101077.00
2022-12-18T04:05:09.242Z,101075.94
2022-12-18T04:06:15.938Z,101082.94
2022-12-18T04:07:20.015Z,101082.06
2022-12-18T04:08:22.994Z,101074.34
2022-12-18T04:09:37.104Z,101075.81
2022-12-18T04:10:39.356Z,101076.78
2022-12-18T04:11:44.825Z,101077.94
2022-12-18T04:12:49.060Z,101068.94
2022-12-18T04:13:51.417Z,101063.94
2022-12-18T04:14:57.553Z,101062.69
2022-12-18T04:16:00.096Z,101064.47
2022-12-18T04:17:03.749Z,101065.41
2022-12-18T04:18:09.072Z,101066.28
2022-12-18T04:19:15.049Z,101053.97
2022-12-18T04:20:19.694Z,101068.81
2022-12-18T04:21:22.510Z,101063.50
2022-12-18T04:22:25.406Z,101066.16
2022-12-18T04:23:33.042Z,101059.06
2022-12-18T04:24:34.965Z,101062.56
2022-12-18T04:25:48.204Z,101065.97
2022-12-18T04:26:56.195Z,101065.03
2022-12-18T04:28:01.480Z,101052.91
2022-12-18T04:29:03.943Z,101051.84
2022-12-18T04:30:06.720Z,101051.84
2022-12-18T04:31:08.810Z,101038.78
2022-12-18T04:32:10.930Z,101024.16
2022-12-18T04:33:19.537Z,101036.03
2022-12-18T04:34:22.066Z,101029.00
2022-12-18T04:35:27.601Z,101037.63
2022-12-18T04:36:30.164Z,101040.41
2022-12-18T04:37:32.075Z,101031.50
2022-12-18T04:38:35.243Z,101029.00
2022-12-18T04:39:42.566Z,101034.88
2022-12-18T04:40:53.723Z,101035.72
2022-12-18T04:42:00.692Z,101032.22
2022-12-18T04:43:03.415Z,101037.41
2022-12-18T04:44:05.665Z,101033.19
2022-12-18T04:45:08.500Z,101036.66
2022-12-18T04:46:10.756Z,101027.97
2022-12-18T04:47:12.642Z,101024.28
2022-12-18T04:48:14.525Z,101023.41
2022-12-18T04:49:16.361Z,101027.75
2022-12-18T04:50:18.301Z,101017.13
2022-12-18T04:51:26.104Z,101016.31
2022-12-18T04:52:28.746Z,101018.75
2022-12-18T04:53:34.225Z,101019.56
2022-12-18T04:54:36.124Z,101022.22
2022-12-18T04:55:37.996Z,100966.44
2022-12-18T04:56:40.917Z,101006.44
2022-12-18T04:57:42.682Z,101006.44
2022-12-18T04:58:45.909Z,101001.13
2022-12-18T04:59:47.687Z,100985.63
2022-12-18T05:00:49.441Z,100992.22
2022-12-18T05:01:51.276Z,100987.88
2022-12-18T05:02:53.285Z,100985.09
2022-12-18T05:03:55.379Z,100979.78
2022-12-18T05:04:57.319Z,100961.00
2022-12-18T05:05:59.139Z,100964.38
2022-12-18T05:07:00.893Z,100979.03
2022-12-18T05:08:02.815Z,100980.63
2022-12-18T05:09:05.225Z,100991.13
2022-12-18T05:10:08.428Z,100976.06
2022-12-18T05:11:16.804Z,100966.13
2022-12-18T05:12:18.786Z,100974.16
2022-12-18T05:13:20.566Z,100977.75
2022-12-18T05:14:22.320Z,100975.94
2022-12-18T05:15:24.272Z,100971.59
2022-12-18T05:16:26.203Z,100967.59
2022-12-18T05:17:28.109Z,100975.00
2022-12-18T05:18:30.163Z,100975.00
2022-12-18T05:19:32.013Z,100974.16
2022-12-18T05:20:33.789Z,100972.34
2022-12-18T05:21:35.825Z,100962.06
2022-12-18T05:22:37.653Z,100971.38
2022-12-18T05:23:39.688Z,100955.28
2022-12-18T05:24:41.849Z,100961.09
2022-12-18T05:25:50.387Z,100974.03
2022-12-18T05:26:52.217Z,100970.31
2022-12-18T05:27:54.057Z,100970.31
2022-12-18T05:28:55.824Z,100974.75
2022-12-18T05:29:57.684Z,100966.19
2022-12-18T05:31:01.832Z,100976.47
2022-12-18T05:32:03.860Z,100979.88
2022-12-18T05:33:05.736Z,100981.56
2022-12-18T05:34:08.061Z,100974.56
2022-12-18T05:35:11.689Z,100971.94
2022-12-18T05:36:13.564Z,100972.78
2022-12-18T05:37:15.428Z,100982.44
2022-12-18T05:38:17.179Z,100979.78
2022-12-18T05:39:18.946Z,100983.41
2022-12-18T05:40:20.740Z,100962.47
2022-12-18T05:41:22.614Z,100966.75
2022-12-18T05:42:24.961Z,100971.69
2022-12-18T05:43:27.966Z,100964.09
2022-12-18T05:44:29.734Z,100975.22
2022-12-18T05:45:31.608Z,100968.94
2022-12-18T05:46:33.652Z,100969.91
2022-12-18T05:47:35.991Z,100967.16
2022-12-18T05:48:37.824Z,100967.16
2022-12-18T05:49:39.659Z,100966.19
2022-12-18T05:50:43.968Z,100963.56
2022-12-18T05:51:46.286Z,100973.22
2022-12-18T05:52:48.069Z,100955.91
2022-12-18T05:53:49.946Z,100974.91
2022-12-18T05:54:51.764Z,100964.38
2022-12-18T05:55:53.507Z,100967.78
2022-12-18T05:56:55.473Z,100964.38
2022-12-18T05:57:57.324Z,100969.47
2022-12-18T05:58:59.152Z,100966.81
2022-12-18T06:00:00.991Z,100966.81
2022-12-18T06:01:20.469Z,100963.09
2022-12-18T06:02:22.657Z,100966.50
2022-12-18T06:03:29.285Z,100955.97
2022-12-18T06:04:34.295Z,100962.97
2022-12-18T06:05:38.292Z,100950.66
2022-12-18T06:06:40.367Z,100932.53
2022-12-18T06:07:42.238Z,100945.34
2022-12-18T06:08:46.508Z,100950.78
2022-12-18T06:09:48.853Z,100942.69
2022-12-18T06:10:53.660Z,100944.53
2022-12-18T06:11:55.482Z,100934.63
2022-12-18T06:12:57.306Z,100942.69
2022-12-18T06:13:59.607Z,100943.56
2022-12-18T06:15:03.137Z,100939.94
2022-12-18T06:16:09.212Z,100948.00
2022-12-18T06:17:11.055Z,100945.13
2022-12-18T06:18:13.026Z,100933.69
2022-12-18T06:19:17.054Z,100934.50
2022-12-18T06:20:19.254Z,100924.34
2022-12-18T06:21:21.010Z,100934.41
2022-12-18T06:22:23.104Z,100944.16
2022-12-18T06:23:24.957Z,100928.25
2022-12-18T06:24:26.796Z,100933.56
2022-12-18T06:25:28.747Z,100929.34
2022-12-18T06:26:30.524Z,100937.16
2022-12-18T06:27:32.832Z,100934.41
2022-12-18T06:28:34.847Z,100938.88
2022-12-18T06:29:36.593Z,100947.69
2022-12-18T06:30:38.438Z,100941.41
2022-12-18T06:31:40.264Z,100942.25
2022-12-18T06:32:42.130Z,100936.94
2022-12-18T06:33:44.121Z,100936.94
2022-12-18T06:34:45.910Z,100926.44
2022-12-18T06:35:47.978Z,100930.69
2022-12-18T06:36:49.813Z,100932.50
2022-12-18T06:37:51.930Z,100926.56
2022-12-18T06:38:54.218Z,100921.25
2022-12-18T06:39:57.590Z,100921.16
2022-12-18T06:40:59.368Z,100930.69
2022-12-18T06:42:01.251Z,100928.88
2022-12-18T06:43:03.190Z,100923.44
2022-12-18T06:44:05.078Z,100910.97
2022-12-18T06:45:07.390Z,100914.25
2022-12-18T06:46:10.093Z,100929.72
2022-12-18T06:47:12.061Z,100915.09
2022-12-18T06:48:13.942Z,100925.28
2022-12-18T06:49:17.025Z,100926.09
2022-12-18T06:50:18.979Z,100930.44
2022-12-18T06:51:22.772Z,100925.28
2022-12-18T06:52:24.548Z,100917.16
2022-12-18T06:53:26.545Z,100916.44
2022-12-18T06:54:28.648Z,100912.72
2022-12-18T06:55:30.469Z,100913.56
2022-12-18T06:56:32.291Z,100898.09
2022-12-18T06:57:34.313Z,100911.88
2022-12-18T06:58:36.159Z,100902.94
2022-12-18T06:59:37.930Z,100903.81
2022-12-18T07:00:39.908Z,100901.16
2022-12-18T07:01:42.071Z,100908.16
2022-12-18T07:02:44.101Z,100890.84
2022-12-18T07:03:46.353Z,100906.34
2022-12-18T07:04:48.116Z,100901.06
2022-12-18T07:05:52.529Z,100892.97
2022-12-18T07:06:54.290Z,100897.44
2022-12-18T07:07:56.392Z,100893.81
2022-12-18T07:08:58.175Z,100902.63
2022-12-18T07:10:00.034Z,100894.56
2022-12-18T07:11:05.391Z,100892.72
2022-12-18T07:12:07.925Z,100895.06
2022-12-18T07:13:09.714Z,100892.25
2022-12-18T07:14:11.517Z,100894.59
2022-12-18T07:15:13.611Z,100890.13
2022-12-18T07:16:24.372Z,100887.22
2022-12-18T07:17:26.849Z,100891.97
2022-12-18T07:18:28.593Z,100886.56
2022-12-18T07:19:30.701Z,100888.13
2022-12-18T07:20:32.991Z,100898.41
2022-12-18T07:21:34.765Z,100884.91
2022-12-18T07:22:36.525Z,100889.13
2022-12-18T07:23:38.831Z,100888.91
2022-12-18T07:24:40.817Z,100875.50
2022-12-18T07:25:42.639Z,100887.34
2022-12-18T07:26:47.074Z,100880.84
2022-12-18T07:27:48.830Z,100874.22
2022-12-18T07:28:51.451Z,100878.34
2022-12-18T07:29:53.361Z,100872.78
2022-12-18T07:30:55.120Z,100875.94
2022-12-18T07:31:58.119Z,100873.75
2022-12-18T07:32:59.989Z,100834.59
2022-12-18T07:34:01.833Z,100886.34
2022-12-18T07:35:03.929Z,100884.28
2022-12-18T07:36:07.764Z,100878.72
2022-12-18T07:37:09.575Z,100878.41
2022-12-18T07:38:11.408Z,100880.69
2022-12-18T07:39:13.310Z,100871.66
2022-12-18T07:40:15.149Z,100855.06
2022-12-18T07:41:17.790Z,100870.19
2022-12-18T07:42:31.538Z,100867.19
2022-12-18T07:43:33.932Z,100856.16
2022-12-18T07:44:35.952Z,100850.13
2022-12-18T07:45:37.775Z,100861.97
2022-12-18T07:46:39.724Z,100861.75
2022-12-18T07:47:42.307Z,100856.28
2022-12-18T07:48:49.382Z,100854.34
2022-12-18T07:49:52.093Z,100841.19
2022-12-18T07:50:53.934Z,100844.91
2022-12-18T07:51:57.193Z,100845.63
2022-12-18T07:52:58.981Z,100842.84
2022-12-18T07:54:00.860Z,100832.47
2022-12-18T07:55:03.202Z,100840.66
2022-12-18T07:58:52.058Z,100843.03
2022-12-18T07:59:53.840Z,100845.84
2022-12-18T08:01:02.851Z,100837.50
2022-12-18T08:02:04.944Z,100840.38
2022-12-18T08:03:08.747Z,100839.53
2022-12-18T08:04:10.536Z,100847.41
2022-12-18T08:05:12.342Z,100839.41
2022-12-18T08:06:14.177Z,100837.47
2022-12-18T08:07:15.990Z,100838.59
2022-12-18T08:08:17.833Z,100833.72
2022-12-18T08:09:19.685Z,100817.66
2022-12-18T08:10:22.384Z,100823.19
2022-12-18T08:11:25.566Z,100825.59
2022-12-18T08:12:27.444Z,100826.34
2022-12-18T08:13:29.773Z,100827.06
2022-12-18T08:14:31.702Z,100821.75
2022-12-18T08:15:33.488Z,100816.41
2022-12-18T08:16:35.675Z,100814.59
2022-12-18T08:17:37.776Z,100817.13
2022-12-18T08:18:39.683Z,100811.91
2022-12-18T08:19:41.565Z,100819.66
2022-12-18T08:20:43.324Z,100817.84
2022-12-18T08:21:45.263Z,100811.66
2022-12-18T08:22:47.029Z,100816.88
2022-12-18T08:23:49.762Z,100811.56
2022-12-18T08:24:53.188Z,100805.13
2022-12-18T08:25:55.004Z,100810.44
2022-12-18T08:27:21.245Z,100811.28
2022-12-18T08:28:19.928Z,100813.44
2022-12-18T08:29:21.854Z,100811.75
2022-12-18T08:30:23.629Z,100804.28
2022-12-18T08:31:27.683Z,100808.38
2022-12-18T08:32:29.622Z,100809.22
2022-12-18T08:33:31.580Z,100810.91
2022-12-18T08:34:33.408Z,100811.88
2022-12-18T08:35:42.476Z,100807.41
2022-12-18T08:36:47.346Z,100791.09
2022-12-18T08:37:49.134Z,100808.84
2022-12-18T08:38:51.568Z,100799.69
2022-12-18T08:39:53.432Z,100804.50
2022-12-18T08:41:02.685Z,100802.19
2022-12-18T08:42:23.109Z,100814.03
2022-12-18T08:43:43.752Z,100803.16
2022-12-18T08:44:45.568Z,100800.22
2022-12-18T08:45:47.500Z,100803.97
2022-12-18T08:46:49.307Z,100805.06
2022-12-18T08:47:51.092Z,100805.06
2022-12-18T08:48:54.477Z,100800.59
2022-12-18T08:49:56.306Z,100807.63
2022-12-18T08:50:59.842Z,100806.78
2022-12-18T08:52:02.542Z,100800.84
2022-12-18T08:53:04.417Z,100816.31
2022-12-18T08:54:07.170Z,100810.16
2022-12-18T08:55:09.857Z,100812.69
2022-12-18T08:56:12.119Z,100810.16
2022-12-18T08:57:13.868Z,100806.25
2022-12-18T08:58:15.786Z,100812.41
2022-12-18T08:59:20.165Z,100805.41
2022-12-18T09:00:22.797Z,100807.69
2022-12-18T09:01:25.231Z,100806.72
2022-12-18T09:02:27.257Z,100799.56
2022-12-18T09:03:29.237Z,100795.09
2022-12-18T09:04:31.073Z,100806.56
2022-12-18T09:05:32.848Z,100799.31
2022-12-18T09:06:34.685Z,100790.34
2022-12-18T09:07:36.693Z,100793.88
2022-12-18T09:08:38.703Z,100796.41
2022-12-18T09:09:40.942Z,100794.59
2022-12-18T09:10:47.084Z,100797.13
2022-12-18T09:11:48.875Z,100795.22
2022-12-18T09:12:50.696Z,100796.91
2022-12-18T09:13:53.725Z,100793.53
2022-12-18T09:14:55.600Z,100793.25
2022-12-18T09:15:57.396Z,100794.94
2022-12-18T09:16:59.316Z,100798.31
2022-12-18T09:18:01.206Z,100793.25
2022-12-18T09:19:05.109Z,100800.13
2022-12-18T09:20:07.483Z,100783.44
2022-12-18T09:21:11.154Z,100786.69
2022-12-18T09:22:13.114Z,100780.66
2022-12-18T09:23:15.518Z,100787.16
2022-12-18T09:24:17.841Z,100775.31
2022-12-18T09:25:19.760Z,100745.47
2022-12-18T09:26:23.169Z,100790.53
2022-12-18T09:27:24.968Z,100782.53
2022-12-18T09:28:27.217Z,100784.06
2022-12-18T09:29:29.617Z,100786.88
2022-12-18T09:30:34.259Z,100785.66
2022-12-18T09:31:37.850Z,100786.47
2022-12-18T09:32:39.635Z,100783.69
2022-12-18T09:33:41.790Z,100786.38
2022-12-18T09:34:43.562Z,100778.88
2022-12-18T09:35:46.715Z,100791.69
2022-12-18T09:36:49.240Z,100791.56
2022-12-18T09:37:51.742Z,100756.78
2022-12-18T09:38:54.285Z,100784.41
2022-12-18T09:39:56.144Z,100791.44
2022-12-18T09:41:16.366Z,100792.13
2022-12-18T09:42:26.984Z,100781.22
2022-12-18T09:43:44.197Z,100788.22
2022-12-18T09:44:52.312Z,100787.97
2022-12-18T09:46:04.222Z,100791.50
2022-12-18T09:47:24.050Z,100794.00
2022-12-18T09:48:36.024Z,100791.34
2022-12-18T09:49:43.729Z,100799.50
2022-12-18T09:50:47.549Z,100802.16
2022-12-18T09:52:31.160Z,100795.44
2022-12-18T09:53:38.599Z,100795.59
2022-12-18T09:54:46.642Z,100795.69
2022-12-18T09:55:49.985Z,100790.63
2022-12-18T09:56:51.826Z,100779.53
2022-12-18T09:58:02.469Z,100782.19
2022-12-18T09:59:06.018Z,100778.56
2022-12-18T10:00:19.702Z,100771.41
2022-12-18T10:01:24.343Z,100755.09
2022-12-18T10:02:27.940Z,100761.13
2022-12-18T10:03:29.842Z,100758.47
2022-12-18T10:04:33.039Z,100733.94
2022-12-18T10:05:38.785Z,100765.50
2022-12-18T10:06:58.210Z,100772.50
2022-12-18T10:08:06.290Z,100772.13
2022-12-18T10:09:21.705Z,100768.75
2022-12-18T10:10:53.987Z,100774.38
2022-12-18T10:12:12.578Z,100771.28
2022-12-18T10:13:27.421Z,100771.00
2022-12-18T10:14:49.989Z,100756.69
2022-12-18T10:16:06.870Z,100765.66
2022-12-18T10:17:39.341Z,100764.69
2022-12-18T10:18:41.332Z,100770.03
2022-12-18T10:19:59.709Z,100764.25
2022-12-18T10:21:11.205Z,100770.56
2022-12-18T10:22:22.325Z,100766.19
2022-12-18T10:23:34.696Z,100764.50
2022-12-18T10:25:16.558Z,100765.22
2022-12-18T10:26:18.717Z,100766.66
2022-12-18T10:27:27.342Z,100763.53
2022-12-18T10:28:31.685Z,100763.81
2022-12-18T10:29:33.542Z,100765.63
2022-12-18T10:30:35.357Z,100751.28
2022-12-18T10:31:37.318Z,100764.19
2022-12-18T10:32:39.318Z,100758.66
2022-12-18T10:33:42.316Z,100766.03
2022-12-18T10:34:49.368Z,100775.00
2022-12-18T10:35:52.253Z,100766.84
2022-12-18T10:36:55.016Z,100775.81
2022-12-18T10:38:12.907Z,100761.22
2022-12-18T10:39:19.997Z,100778.25
2022-12-18T10:40:22.724Z,100773.91
2022-12-18T10:41:27.809Z,100760.50
2022-12-18T10:42:31.382Z,100769.94
2022-12-18T10:43:38.239Z,100774.28
2022-12-18T10:44:40.094Z,100763.88
2022-12-18T10:45:43.263Z,100772.31
2022-12-18T10:46:50.311Z,100777.66
2022-12-18T10:47:52.248Z,100755.88
2022-12-18T10:48:56.625Z,100765.16
2022-12-18T10:49:58.455Z,100753.94
2022-12-18T10:51:10.773Z,100779.34
2022-12-18T10:52:21.997Z,100764.06
2022-12-18T10:53:30.799Z,100767.44
2022-12-18T10:54:34.833Z,100763.09
2022-12-18T10:55:45.115Z,100751.84
2022-12-18T10:56:47.033Z,100751.00
2022-12-18T10:57:48.833Z,100755.09
2022-12-18T10:58:59.593Z,100749.75
2022-12-18T11:00:22.349Z,100756.50
2022-12-18T11:01:24.248Z,100754.56
2022-12-18T11:02:44.240Z,100757.22
2022-12-18T11:04:02.429Z,100764.25
2022-12-18T11:05:34.315Z,100750.53
2022-12-18T11:06:58.035Z,100735.38
2022-12-18T11:08:01.449Z,100738.03
2022-12-18T11:09:23.957Z,100731.16
2022-12-18T11:10:34.477Z,100740.84
2022-12-18T11:11:36.802Z,100738.19
2022-12-18T11:12:38.726Z,100738.31
2022-12-18T11:13:41.435Z,100736.88
2022-12-18T11:14:49.532Z,100744.88
2022-12-18T11:15:52.162Z,100729.16
2022-12-18T11:17:24.897Z,100738.56
2022-12-18T11:18:28.077Z,100733.69
2022-12-18T11:19:34.925Z,100736.34
2022-12-18T11:20:37.660Z,100739.00
2022-12-18T11:21:43.714Z,100728.88
2022-12-18T11:22:56.909Z,100740.84
2022-12-18T11:23:58.998Z,100746.03
2022-12-18T11:25:33.118Z,100744.34
2022-12-18T11:26:37.205Z,100745.50
2022-12-18T11:27:41.062Z,100741.56
2022-12-18T11:29:09.449Z,100751.97
2022-12-18T11:30:32.980Z,100746.09
2022-12-18T11:31:34.917Z,100744.78
2022-12-18T11:32:48.179Z,100751.81
2022-12-18T11:35:51.610Z,100745.81
2022-12-18T11:36:53.675Z,100745.81
2022-12-18T11:38:03.904Z,100747.19
2022-12-18T11:39:24.098Z,100749.63
2022-12-18T11:40:40.861Z,100732.84
2022-12-18T11:42:10.259Z,100750.59
2022-12-18T11:43:21.887Z,100749.47
2022-12-18T11:44:39.277Z,100744.28
2022-12-18T11:45:49.814Z,100742.00
2022-12-18T11:47:00.332Z,100742.59
2022-12-18T11:48:22.781Z,100742.44
2022-12-18T11:49:33.990Z,100748.63
2022-12-18T11:50:38.576Z,100745.25
2022-12-18T11:51:51.024Z,100734.13
2022-12-18T11:52:58.175Z,100740.91
2022-12-18T11:54:03.086Z,100723.03
2022-12-18T11:55:17.841Z,100736.53
2022-12-18T11:56:44.368Z,100745.00
2022-12-18T11:58:04.040Z,100747.50
2022-12-18T11:59:32.731Z,100742.06
2022-12-18T12:00:40.811Z,100741.34
2022-12-18T12:02:10.564Z,100752.84
2022-12-18T12:03:15.459Z,100755.66
2022-12-18T12:04:33.070Z,100742.84
2022-12-18T12:05:59.667Z,100745.13
2022-12-18T12:07:16.658Z,100761.97
2022-12-18T12:08:40.410Z,100757.19
2022-12-18T12:10:17.508Z,100757.63
2022-12-18T12:11:53.304Z,100755.13
2022-12-18T12:13:07.000Z,100756.22
2022-12-18T12:14:30.596Z,100759.16
2022-12-18T12:15:58.274Z,100764.38
2022-12-18T12:17:10.881Z,100755.66
2022-12-18T12:18:31.281Z,100765.47
2022-12-18T12:20:09.732Z,100764.09
2022-12-18T12:21:13.290Z,100728.78
2022-12-18T12:22:34.737Z,100763.50
2022-12-18T12:23:46.426Z,100759.44
2022-12-18T12:24:54.357Z,100762.94
2022-12-18T12:26:11.445Z,100764.91
2022-12-18T12:27:37.908Z,100760.41
2022-12-18T12:28:58.484Z,100759.31
2022-12-18T12:30:21.578Z,100754.69
2022-12-18T12:31:32.392Z,100754.94
2022-12-18T12:33:08.233Z,100755.66
2022-12-18T12:34:23.965Z,100753.00
2022-12-18T12:36:05.471Z,100758.19
2022-12-18T12:37:22.171Z,100748.38
2022-12-18T12:38:29.671Z,100750.31
2022-12-18T12:39:39.118Z,100760.41
2022-12-18T12:40:58.604Z,100762.63
2022-12-18T12:42:23.730Z,100764.75
2022-12-18T12:43:33.918Z,100768.28
2022-12-18T12:44:43.727Z,100769.25
2022-12-18T12:46:13.073Z,100777.25
2022-12-18T12:47:24.106Z,100781.59